Pagrindinis puslapis
METAR-TAF:

METAR-TAF

Oro uostai :

Hobart, Oklahoma, Jungtinės Amerikos Valstijos

platuma: 34-59-22N, ilguma: 099-03-09W, Aukštis: 476 m

Dabartinis oras

Ataskaita buvo paskelbta 1 valandą ir 1 minutes, ne 11:53 UTC
Vėjas 6 kt iš Vakarų/Pietvakarių
Temperatūra 10°C
Drėgmė 62%
Slėgis 1021 hPa
Matomumas: 16.1 km
Giedras dangus

METAR: KHBR 231153Z AUTO 24006KT 10SM CLR 10/03 A3015 RMK AO2 SLP201 T01000028 10150 20100 55003

Laikas: 07:54 (12:54 UTC)


TAF: trūkstamas

Orai ataskaitas ir orų prognozės (METAR, TAF).

turimą stotys yra geltonos ir raudonos taškus žemėlapyje.

Perkelti pele per norėdami pamatyti stoties vardą.

Tada spustelėkite, norėdami matyti oro stebėjimo ir prognozės.

Norėdami pakeisti žemėlapį: spustelėkite ant žalios mygtukų su juodo kryžiaus žemyn,; žalią mygtuką su brūkšneliu, jei norite nutolinti; arba žalių rodyklių gretimoms žemėlapius.


METAR-TAF: